Time;durP1;ratioP1;P1;durP2;ratioP2;P2;SDS_P1;SDS_P2;PMS_P1;PMS_P2;Temp;Humidity;BMP_temperature;BMP_pressure;BME280_temperature;BME280_humidity;BME280_pressure;Samples;Min_cycle;Max_cycle;Signal;HPM_P1;HPM_P2
2022/08/04 00:00:13;;;;;;;5.03;1.65;;;26.80;42.90;;;;;;4996705;28;20053;-45
2022/08/04 00:02:51;;;;;;;2.58;1.80;;;26.80;42.90;;;;;;5001986;28;20058;-46
2022/08/04 00:05:33;;;;;;;2.63;1.63;;;26.80;42.90;;;;;;5002321;28;20061;-43
2022/08/04 00:08:16;;;;;;;2.10;1.60;;;26.70;43.10;;;;;;4994942;28;20599;-47
2022/08/04 00:10:49;;;;;;;2.97;1.90;;;26.70;43.00;;;;;;4998480;28;20054;-42
2022/08/04 00:13:22;;;;;;;3.65;1.90;;;26.60;43.10;;;;;;5000158;28;20425;-43
2022/08/04 00:15:52;;;;;;;4.05;1.90;;;26.60;43.10;;;;;;4998941;28;20053;-44
2022/08/04 00:18:23;;;;;;;3.42;1.60;;;26.60;43.20;;;;;;5001235;28;20065;-42
2022/08/04 00:20:53;;;;;;;2.85;1.85;;;26.60;43.20;;;;;;4997460;28;20065;-44
2022/08/04 00:23:22;;;;;;;2.40;1.70;;;26.50;43.20;;;;;;4998143;28;20068;-42
2022/08/04 00:25:50;;;;;;;3.70;1.58;;;26.50;43.30;;;;;;5000369;28;20544;-42
2022/08/04 00:28:18;;;;;;;2.80;2.10;;;26.40;43.30;;;;;;4997300;28;20059;-43
2022/08/04 00:30:45;;;;;;;2.58;1.77;;;26.50;43.40;;;;;;4998346;28;20057;-41
2022/08/04 00:33:18;;;;;;;2.50;1.73;;;26.40;43.40;;;;;;5001091;28;20058;-47
2022/08/04 00:35:47;;;;;;;2.55;1.65;;;26.40;43.50;;;;;;5000880;28;20085;-46
2022/08/04 00:38:16;;;;;;;3.55;1.58;;;26.30;43.50;;;;;;4995643;28;20054;-42
2022/08/04 00:40:57;;;;;;;4.85;2.22;;;26.30;43.50;;;;;;4999374;28;20050;-43
2022/08/04 00:43:31;;;;;;;4.25;2.25;;;26.30;43.70;;;;;;4997198;28;20084;-43
2022/08/04 00:46:37;;;;;;;2.88;2.10;;;26.20;43.70;;;;;;4996125;28;20061;-42
2022/08/04 00:49:32;;;;;;;2.40;1.92;;;26.20;43.60;;;;;;5001408;28;20058;-45
2022/08/04 00:52:09;;;;;;;2.58;2.00;;;26.10;43.40;;;;;;4993008;28;20048;-42
2022/08/04 00:54:56;;;;;;;5.75;2.20;;;26.10;43.50;;;;;;4998037;28;20057;-44
2022/08/04 00:57:35;;;;;;;4.25;1.65;;;26.10;43.70;;;;;;4999609;28;20383;-46
2022/08/04 01:00:09;;;;;;;3.10;2.00;;;26.10;43.80;;;;;;4995989;28;20057;-41
2022/08/04 01:02:44;;;;;;;3.78;1.60;;;26.00;43.90;;;;;;5001038;28;20128;-42
2022/08/04 01:05:20;;;;;;;2.28;1.73;;;25.90;43.90;;;;;;4999115;28;20054;-46
2022/08/04 01:08:00;;;;;;;3.00;1.80;;;25.90;44.10;;;;;;4999373;28;20049;-42
2022/08/04 01:10:40;;;;;;;4.40;1.80;;;25.90;44.00;;;;;;4996412;28;20061;-43
2022/08/04 01:13:35;;;;;;;3.25;1.75;;;25.80;44.10;;;;;;4999569;28;20050;-43
2022/08/04 01:16:06;;;;;;;2.22;1.83;;;25.80;44.30;;;;;;4999607;28;20053;-43
2022/08/04 01:18:42;;;;;;;5.47;2.25;;;25.80;44.20;;;;;;5000126;28;20057;-42
2022/08/04 01:21:39;;;;;;;2.90;2.00;;;25.70;44.30;;;;;;4997545;28;20414;-42
2022/08/04 01:24:30;;;;;;;2.70;1.75;;;25.70;44.20;;;;;;4999717;28;20054;-45
2022/08/04 01:27:03;;;;;;;2.50;2.00;;;25.70;44.40;;;;;;4996470;28;20054;-45
2022/08/04 01:29:35;;;;;;;3.22;1.80;;;25.70;44.60;;;;;;4999013;28;20069;-45
2022/08/04 01:32:06;;;;;;;2.65;2.03;;;25.60;44.70;;;;;;4998072;28;20060;-43
2022/08/04 01:34:39;;;;;;;5.88;2.17;;;25.60;44.70;;;;;;4998648;28;20053;-43
2022/08/04 01:37:15;;;;;;;2.35;1.98;;;25.60;44.80;;;;;;4999869;28;20491;-42
2022/08/04 01:39:50;;;;;;;2.97;1.90;;;25.50;44.90;;;;;;4989207;28;20450;-43
2022/08/04 01:42:19;;;;;;;7.25;1.88;;;25.50;45.00;;;;;;4998897;28;20053;-42
2022/08/04 01:44:50;;;;;;;2.17;1.80;;;25.50;44.90;;;;;;5000578;28;20057;-43
2022/08/04 01:47:20;;;;;;;2.25;1.85;;;25.40;44.90;;;;;;4993429;28;20057;-43
2022/08/04 01:49:50;;;;;;;3.75;2.20;;;25.40;44.90;;;;;;4995340;28;20046;-42
2022/08/04 01:52:18;;;;;;;3.40;1.90;;;25.40;45.00;;;;;;5000402;28;20054;-44
2022/08/04 01:54:46;;;;;;;2.70;1.98;;;25.30;45.00;;;;;;5001528;28;20081;-46
2022/08/04 01:57:16;;;;;;;2.13;1.73;;;25.30;45.00;;;;;;5001585;28;20054;-42
2022/08/04 01:59:47;;;;;;;3.10;1.70;;;25.20;45.10;;;;;;4991277;28;20501;-43
2022/08/04 02:02:15;;;;;;;2.08;1.75;;;25.30;45.10;;;;;;4997054;28;20057;-43
2022/08/04 02:08:19;;;;;;;5.53;2.13;;;25.20;45.10;;;;;;5004589;28;20037;-42
2022/08/04 02:11:00;;;;;;;2.97;1.85;;;25.20;45.00;;;;;;4997280;28;20054;-42
2022/08/04 02:13:37;;;;;;;2.58;1.75;;;25.10;45.00;;;;;;5004485;28;20053;-43
2022/08/04 02:16:10;;;;;;;4.32;1.95;;;25.10;45.10;;;;;;5006044;28;20061;-43
2022/08/04 02:18:48;;;;;;;2.85;2.20;;;25.10;45.10;;;;;;5002557;28;20053;-42
2022/08/04 02:21:18;;;;;;;7.38;2.03;;;25.00;45.20;;;;;;4998265;28;20417;-44
2022/08/04 02:26:24;;;;;;;3.58;2.10;;;24.90;45.30;;;;;;5679926;23;20054;-43
2022/08/04 02:28:59;;;;;;;2.78;1.75;;;24.90;45.30;;;;;;4980260;28;20108;-42
2022/08/04 02:31:32;;;;;;;2.38;2.08;;;24.90;45.30;;;;;;4982530;28;20058;-44
2022/08/04 02:34:07;;;;;;;3.63;2.15;;;24.80;45.50;;;;;;4981702;28;20054;-42
2022/08/04 02:36:37;;;;;;;3.28;2.08;;;24.80;45.60;;;;;;4987177;28;20054;-44
2022/08/04 02:39:05;;;;;;;2.15;1.90;;;24.80;45.60;;;;;;4985923;28;20062;-42
2022/08/04 02:41:34;;;;;;;3.25;2.10;;;24.80;45.80;;;;;;4984875;28;20054;-43
2022/08/04 02:44:03;;;;;;;4.20;2.03;;;24.80;45.80;;;;;;4984825;28;20054;-45
2022/08/04 02:46:32;;;;;;;3.95;2.13;;;24.80;45.90;;;;;;4983134;28;20057;-41
2022/08/04 02:49:04;;;;;;;5.05;2.25;;;24.70;45.90;;;;;;4985780;28;20061;-43
2022/08/04 02:51:34;;;;;;;4.43;2.22;;;24.70;45.80;;;;;;4984455;28;20054;-45
2022/08/04 02:54:04;;;;;;;3.35;2.05;;;24.70;45.80;;;;;;4985866;28;20054;-41
2022/08/04 02:56:33;;;;;;;2.33;2.05;;;24.60;45.80;;;;;;4985886;28;20062;-41
2022/08/04 02:59:03;;;;;;;2.75;2.08;;;24.60;46.00;;;;;;4982363;28;20054;-42
2022/08/04 03:01:31;;;;;;;2.90;2.17;;;24.60;46.20;;;;;;4983529;28;20046;-43
2022/08/04 03:04:15;;;;;;;2.63;2.00;;;24.60;46.30;;;;;;4986076;28;20405;-42
2022/08/04 03:07:17;;;;;;;2.95;2.45;;;24.60;46.50;;;;;;4959195;28;20055;-44
2022/08/04 03:10:16;;;;;;;3.88;2.13;;;24.60;46.40;;;;;;4963984;28;20062;-44
2022/08/04 03:13:18;;;;;;;3.00;2.30;;;24.60;46.50;;;;;;4962897;28;20475;-43
2022/08/04 03:16:02;;;;;;;2.42;2.13;;;24.50;46.40;;;;;;4964503;28;20061;-44
2022/08/04 03:19:22;;;;;;;3.15;2.20;;;24.50;46.50;;;;;;4965600;28;20051;-44
2022/08/04 03:22:18;;;;;;;3.65;2.10;;;24.50;46.50;;;;;;4964434;28;20078;-45
2022/08/04 03:25:24;;;;;;;4.03;2.20;;;24.50;46.60;;;;;;4963412;28;20402;-42
2022/08/04 03:28:23;;;;;;;2.72;2.25;;;24.50;46.60;;;;;;4944620;28;20070;-45
2022/08/04 03:31:26;;;;;;;5.82;2.10;;;24.50;46.60;;;;;;4942916;28;20064;-44
2022/08/04 03:34:15;;;;;;;2.25;2.00;;;24.40;46.60;;;;;;4940979;28;20055;-44
2022/08/04 03:37:15;;;;;;;3.08;2.45;;;24.40;46.70;;;;;;4935331;28;20392;-45
2022/08/04 03:40:23;;;;;;;5.55;2.40;;;24.30;46.60;;;;;;4936435;28;20063;-41
2022/08/04 03:43:30;;;;;;;3.05;1.83;;;24.30;46.70;;;;;;4943839;28;20063;-41
2022/08/04 03:46:15;;;;;;;4.15;2.50;;;24.30;46.70;;;;;;4866081;29;20064;-42
2022/08/04 03:48:59;;;;;;;;;;;24.30;46.90;;;;;;4938257;28;20058;-44
2022/08/04 03:55:01;;;;;;;2.65;2.28;;;24.30;46.80;;;;;;4910777;28;20414;-41
2022/08/04 03:57:56;;;;;;;3.22;2.38;;;24.20;46.80;;;;;;4945773;28;20059;-41
2022/08/04 04:00:30;;;;;;;3.85;2.33;;;24.20;46.80;;;;;;4941449;28;20062;-43
2022/08/04 04:03:31;;;;;;;3.80;2.30;;;24.10;46.90;;;;;;4942525;28;20402;-43
2022/08/04 04:06:24;;;;;;;2.75;2.20;;;24.10;46.90;;;;;;4940236;28;20054;-43
2022/08/04 04:09:28;;;;;;;2.33;2.08;;;24.10;47.00;;;;;;4937409;28;20059;-41
2022/08/04 04:12:22;;;;;;;5.88;2.10;;;24.10;47.10;;;;;;4940870;28;20399;-42
2022/08/04 04:15:01;;;;;;;5.55;2.42;;;24.00;46.90;;;;;;4943287;28;20423;-43
2022/08/04 04:17:48;;;;;;;3.13;2.28;;;24.00;47.00;;;;;;4944259;28;20063;-44
2022/08/04 04:21:05;;;;;;;2.53;2.22;;;24.00;47.20;;;;;;4937641;28;20071;-44
2022/08/04 04:23:49;;;;;;;2.80;2.33;;;24.00;47.20;;;;;;4896804;28;20058;-42
2022/08/04 04:26:32;;;;;;;3.35;2.45;;;24.00;47.10;;;;;;4931087;28;20059;-45
2022/08/04 04:29:27;;;;;;;2.55;2.30;;;24.00;47.30;;;;;;4922443;28;20517;-44
2022/08/04 04:32:04;;;;;;;2.30;2.10;;;23.90;47.40;;;;;;4921518;28;20058;-44
2022/08/04 04:34:44;;;;;;;3.25;2.20;;;23.90;47.30;;;;;;4924104;28;20070;-42
2022/08/04 04:37:23;;;;;;;5.82;2.22;;;23.90;47.50;;;;;;4926566;28;20058;-43
2022/08/04 04:40:03;;;;;;;6.90;2.40;;;23.90;47.60;;;;;;4925919;28;20055;-48
2022/08/04 04:42:42;;;;;;;2.50;2.30;;;23.90;47.60;;;;;;4924602;28;20059;-43
2022/08/04 04:45:24;;;;;;;3.13;2.03;;;23.90;47.70;;;;;;4930101;28;20712;-41
2022/08/04 04:47:57;;;;;;;2.45;2.25;;;23.90;47.60;;;;;;4924619;28;20062;-42
2022/08/04 04:50:39;;;;;;;5.57;3.78;;;23.90;47.70;;;;;;4923399;28;20066;-45
2022/08/04 04:53:17;;;;;;;5.18;3.60;;;23.90;47.80;;;;;;4923077;28;21960;-44
2022/08/04 04:55:50;;;;;;;4.82;3.03;;;23.90;47.70;;;;;;4927188;28;21378;-41
2022/08/04 04:58:19;;;;;;;3.33;2.50;;;23.90;47.70;;;;;;4926435;28;20051;-45
2022/08/04 05:01:30;;;;;;;3.85;2.40;;;23.90;47.80;;;;;;4924664;28;20063;-41
2022/08/04 05:04:24;;;;;;;6.07;2.20;;;23.90;47.80;;;;;;4881696;29;21425;-45
2022/08/04 05:07:10;;;;;;;3.17;2.50;;;24.00;47.80;;;;;;4927392;28;20395;-42
2022/08/04 05:09:53;;;;;;;2.95;1.75;;;23.90;47.70;;;;;;4928146;28;20054;-44
2022/08/04 05:12:38;;;;;;;10.50;6.90;;;24.00;47.80;;;;;;4927966;28;20078;-42
2022/08/04 05:15:08;;;;;;;42.83;21.00;;;24.00;47.90;;;;;;4938562;28;20502;-43
2022/08/04 05:17:39;;;;;;;22.92;13.30;;;24.00;47.90;;;;;;4932337;28;20419;-41
2022/08/04 05:20:10;;;;;;;10.52;5.75;;;24.00;48.00;;;;;;4935679;28;20051;-43
2022/08/04 05:22:42;;;;;;;5.40;3.45;;;24.00;48.20;;;;;;4931040;28;20070;-46
2022/08/04 05:25:20;;;;;;;4.38;2.70;;;24.00;48.10;;;;;;4934394;28;20055;-42
2022/08/04 05:27:55;;;;;;;2.40;2.08;;;24.10;48.40;;;;;;4932890;28;20063;-42
2022/08/04 05:30:24;;;;;;;2.55;1.95;;;24.00;48.10;;;;;;4927134;28;20059;-43
2022/08/04 05:33:02;;;;;;;4.88;2.40;;;24.10;48.20;;;;;;4924223;28;20051;-45
2022/08/04 05:35:34;;;;;;;3.85;2.05;;;24.10;48.40;;;;;;4928744;28;20070;-42
2022/08/04 05:38:03;;;;;;;2.83;2.40;;;24.10;48.40;;;;;;4927310;28;20055;-43
2022/08/04 05:40:31;;;;;;;2.05;1.85;;;24.20;48.50;;;;;;4927345;28;21375;-43
2022/08/04 05:43:00;;;;;;;2.17;1.75;;;24.20;48.30;;;;;;4925200;28;20727;-43
2022/08/04 05:45:28;;;;;;;3.60;2.28;;;24.20;48.30;;;;;;4928490;28;20063;-41
2022/08/04 05:47:55;;;;;;;2.38;2.00;;;24.30;48.50;;;;;;4929026;28;20106;-43
2022/08/04 05:50:23;;;;;;;3.67;2.30;;;24.30;48.50;;;;;;4933141;28;20066;-43
2022/08/04 05:52:53;;;;;;;2.30;2.10;;;24.30;48.50;;;;;;4928944;28;20051;-43
2022/08/04 05:55:21;;;;;;;3.53;2.00;;;24.40;48.60;;;;;;4928677;28;20057;-43
2022/08/04 05:57:50;;;;;;;3.40;2.10;;;24.40;48.50;;;;;;4926936;28;20059;-46
2022/08/04 06:00:17;;;;;;;3.63;2.20;;;24.40;48.70;;;;;;4926056;28;20055;-43
2022/08/04 06:02:47;;;;;;;2.72;2.10;;;24.50;48.80;;;;;;4933628;28;20586;-45
2022/08/04 06:05:16;;;;;;;2.28;2.08;;;24.50;48.90;;;;;;4933879;28;20062;-43
2022/08/04 06:07:43;;;;;;;3.25;2.20;;;24.50;48.90;;;;;;4934531;28;20400;-42
2022/08/04 06:10:12;;;;;;;4.70;2.47;;;24.60;48.90;;;;;;4931354;28;20054;-41
2022/08/04 06:12:46;;;;;;;5.25;2.53;;;24.70;49.20;;;;;;4936390;28;20055;-41
2022/08/04 06:15:18;;;;;;;4.05;2.30;;;24.70;48.80;;;;;;4931025;28;20066;-42
2022/08/04 06:17:49;;;;;;;3.58;2.22;;;24.80;48.70;;;;;;4938239;28;20058;-43
2022/08/04 06:20:18;;;;;;;3.85;1.85;;;24.80;48.80;;;;;;4928569;28;20541;-44
2022/08/04 06:22:49;;;;;;;7.38;2.17;;;24.90;48.90;;;;;;4930557;28;20058;-42
2022/08/04 06:25:20;;;;;;;3.58;2.25;;;25.00;48.80;;;;;;4928930;28;20059;-43
2022/08/04 06:27:49;;;;;;;4.60;2.05;;;25.00;48.70;;;;;;4931093;28;20055;-43
2022/08/04 06:30:18;;;;;;;3.92;2.10;;;25.10;48.60;;;;;;4930500;28;21444;-44
2022/08/04 06:32:54;;;;;;;3.22;1.95;;;25.20;48.70;;;;;;4936385;28;20507;-44
2022/08/04 06:35:23;;;;;;;5.82;2.03;;;25.20;48.30;;;;;;4935371;28;20071;-44
2022/08/04 06:37:51;;;;;;;4.53;2.33;;;25.30;47.60;;;;;;4928955;28;20059;-42
2022/08/04 06:40:23;;;;;;;6.78;2.20;;;25.30;47.10;;;;;;4928469;28;20059;-45
2022/08/04 06:42:51;;;;;;;2.90;1.90;;;25.40;47.40;;;;;;4928829;28;20075;-43
2022/08/04 06:45:20;;;;;;;3.95;2.25;;;25.50;47.70;;;;;;4936314;28;20055;-45
2022/08/04 06:47:48;;;;;;;3.17;2.03;;;25.60;47.80;;;;;;4930908;28;20051;-42
2022/08/04 06:50:16;;;;;;;3.10;2.20;;;25.60;47.80;;;;;;4936070;28;20082;-42
2022/08/04 06:52:45;;;;;;;3.83;2.08;;;25.70;47.40;;;;;;4933481;28;20058;-43
2022/08/04 06:55:13;;;;;;;2.13;1.73;;;25.80;47.30;;;;;;4932391;28;20047;-41
2022/08/04 06:57:43;;;;;;;2.40;1.85;;;25.90;47.20;;;;;;4925877;28;20062;-44
2022/08/04 07:00:13;;;;;;;5.32;2.00;;;26.00;47.10;;;;;;4931433;28;20066;-42
2022/08/04 07:02:44;;;;;;;4.47;2.28;;;26.10;47.10;;;;;;4946149;28;20059;-42
2022/08/04 07:05:15;;;;;;;3.13;2.22;;;26.10;47.00;;;;;;4939386;28;20047;-41
2022/08/04 07:07:59;;;;;;;2.95;2.17;;;26.20;47.00;;;;;;4954780;28;20054;-44
2022/08/04 07:10:28;;;;;;;;;;;26.30;46.80;;;;;;4946965;28;20055;-42
2022/08/04 07:13:00;;;;;;;2.63;1.90;;;26.40;46.70;;;;;;4935983;28;19934;-42
2022/08/04 07:15:32;;;;;;;5.03;3.17;;;26.50;46.30;;;;;;4943849;28;20511;-42
2022/08/04 07:18:08;;;;;;;4.95;2.75;;;26.60;46.40;;;;;;4949701;28;20490;-44
2022/08/04 07:20:40;;;;;;;3.15;2.30;;;26.60;46.60;;;;;;4938934;28;20051;-47
2022/08/04 07:23:10;;;;;;;6.85;2.35;;;26.70;46.60;;;;;;4938184;28;20565;-43
2022/08/04 07:25:44;;;;;;;5.03;2.10;;;26.70;46.50;;;;;;4944756;28;20428;-43
2022/08/04 07:28:20;;;;;;;4.88;2.20;;;26.80;46.30;;;;;;4942191;28;20515;-44
2022/08/04 07:30:50;;;;;;;4.38;2.08;;;26.90;46.10;;;;;;4936623;28;20058;-44
2022/08/04 07:33:19;;;;;;;2.65;2.17;;;27.00;45.80;;;;;;4932291;28;20051;-43
2022/08/04 07:35:49;;;;;;;2.78;2.08;;;27.00;45.60;;;;;;4930529;28;20074;-44
2022/08/04 07:38:17;;;;;;;2.63;1.98;;;27.10;45.30;;;;;;4932630;28;20059;-43
2022/08/04 07:40:45;;;;;;;2.95;1.83;;;27.20;45.10;;;;;;4927339;28;20043;-43
2022/08/04 07:43:15;;;;;;;3.17;1.90;;;27.30;45.10;;;;;;4934584;28;20422;-45
2022/08/04 07:45:42;;;;;;;5.63;1.67;;;27.40;44.80;;;;;;4938199;28;20066;-45
2022/08/04 07:48:10;;;;;;;3.17;2.50;;;27.50;44.70;;;;;;4944822;28;20063;-45
2022/08/04 07:50:38;;;;;;;3.38;1.60;;;27.60;44.60;;;;;;4931679;28;20431;-44
2022/08/04 07:53:06;;;;;;;2.10;1.67;;;27.60;44.40;;;;;;4940242;28;20059;-45
2022/08/04 07:55:33;;;;;;;3.65;2.38;;;27.70;44.40;;;;;;4943073;28;20062;-43
2022/08/04 07:58:00;;;;;;;4.53;2.45;;;27.80;44.00;;;;;;4935517;28;20598;-43
2022/08/04 08:00:29;;;;;;;3.38;2.47;;;27.90;44.00;;;;;;4936501;28;20055;-42
2022/08/04 08:02:57;;;;;;;7.60;2.08;;;27.90;43.90;;;;;;4932427;28;20672;-42
2022/08/04 08:05:24;;;;;;;4.43;2.00;;;28.00;43.80;;;;;;4927490;28;20062;-42
2022/08/04 08:07:52;;;;;;;2.10;1.90;;;28.10;43.60;;;;;;4931750;28;20055;-42
2022/08/04 08:10:19;;;;;;;1.90;1.70;;;28.10;43.50;;;;;;4931100;28;20121;-44
2022/08/04 08:12:48;;;;;;;6.65;1.77;;;28.20;43.60;;;;;;4932589;28;20407;-41
2022/08/04 08:15:15;;;;;;;2.25;1.67;;;28.30;43.40;;;;;;4929022;28;20058;-41
2022/08/04 08:17:44;;;;;;;2.67;2.03;;;28.40;43.40;;;;;;4931428;28;20446;-44
2022/08/04 08:20:11;;;;;;;2.35;1.65;;;28.50;43.20;;;;;;4924697;28;21769;-42
2022/08/04 08:22:39;;;;;;;9.55;1.80;;;28.50;43.30;;;;;;4938760;28;20051;-42
2022/08/04 08:25:07;;;;;;;2.67;1.70;;;28.60;43.20;;;;;;4937162;28;20051;-47
2022/08/04 08:27:34;;;;;;;2.63;1.60;;;28.60;43.10;;;;;;4935738;28;21373;-45
2022/08/04 08:30:01;;;;;;;3.45;1.92;;;28.70;43.10;;;;;;4944135;28;20423;-42
2022/08/04 08:32:29;;;;;;;4.43;1.67;;;28.80;43.10;;;;;;4934678;28;20063;-46
2022/08/04 08:34:57;;;;;;;7.25;1.88;;;29.00;43.00;;;;;;4927491;28;20081;-43
2022/08/04 08:37:32;;;;;;;6.53;1.83;;;29.10;42.90;;;;;;4935934;28;20066;-43
2022/08/04 08:40:10;;;;;;;6.32;2.15;;;29.10;42.70;;;;;;4935485;28;20089;-44
2022/08/04 08:42:55;;;;;;;5.10;1.80;;;29.30;42.40;;;;;;4943620;28;20058;-42
2022/08/04 08:45:52;;;;;;;3.72;1.80;;;29.40;41.70;;;;;;4934716;28;20419;-45
2022/08/04 08:48:40;;;;;;;3.53;2.00;;;29.50;41.70;;;;;;4932191;28;20399;-44
2022/08/04 08:51:38;;;;;;;5.95;1.85;;;29.60;42.10;;;;;;4940083;28;20047;-46
2022/08/04 08:54:29;;;;;;;2.08;1.48;;;29.80;41.60;;;;;;4930546;28;20076;-42
2022/08/04 08:57:14;;;;;;;2.75;1.60;;;29.90;41.00;;;;;;4935531;28;20063;-43
2022/08/04 09:00:01;;;;;;;2.45;1.40;;;30.00;40.40;;;;;;4931464;28;20499;-43
2022/08/04 09:03:11;;;;;;;3.65;1.45;;;30.10;40.00;;;;;;4931771;28;20148;-45
2022/08/04 09:05:56;;;;;;;1.77;1.35;;;30.20;39.20;;;;;;4939620;28;20055;-45
2022/08/04 09:08:41;;;;;;;1.52;1.13;;;30.30;38.90;;;;;;4927195;28;20411;-41
2022/08/04 09:11:13;;;;;;;4.00;1.20;;;30.40;38.70;;;;;;4935614;28;20403;-45
2022/08/04 09:13:44;;;;;;;3.10;1.30;;;30.50;38.20;;;;;;4923763;28;22165;-43
2022/08/04 09:16:17;;;;;;;1.98;1.10;;;30.50;38.10;;;;;;4931480;28;20051;-43
2022/08/04 09:18:52;;;;;;;1.08;0.98;;;30.70;37.00;;;;;;4935389;28;20518;-42
2022/08/04 09:21:25;;;;;;;4.07;1.92;;;30.80;37.20;;;;;;4929450;28;20058;-43
2022/08/04 09:24:04;;;;;;;3.92;1.20;;;30.80;36.70;;;;;;4930827;28;20050;-43
2022/08/04 09:26:39;;;;;;;2.35;1.33;;;30.90;35.60;;;;;;4934861;28;20059;-46
2022/08/04 09:29:13;;;;;;;1.77;1.30;;;31.10;35.90;;;;;;4923960;28;20055;-46
2022/08/04 09:31:49;;;;;;;2.92;1.20;;;31.30;36.40;;;;;;4926465;28;20078;-43
2022/08/04 09:34:25;;;;;;;1.15;1.02;;;31.40;36.20;;;;;;4931903;28;20070;-43
2022/08/04 09:36:59;;;;;;;1.63;1.20;;;31.50;35.80;;;;;;4927382;28;20059;-46
2022/08/04 09:39:39;;;;;;;2.45;1.20;;;31.70;35.70;;;;;;4926353;28;21454;-44
2022/08/04 09:42:18;;;;;;;2.55;1.27;;;31.70;34.80;;;;;;4934349;28;20063;-45
2022/08/04 09:44:57;;;;;;;1.92;1.27;;;31.80;35.10;;;;;;4935343;28;20058;-42
2022/08/04 09:47:31;;;;;;;2.40;1.27;;;31.90;32.50;;;;;;4941350;28;20055;-45
2022/08/04 09:50:08;;;;;;;2.38;1.30;;;32.00;33.40;;;;;;4940009;28;20055;-43
2022/08/04 09:52:46;;;;;;;3.45;1.48;;;32.10;33.20;;;;;;4934039;28;20082;-43
2022/08/04 09:55:25;;;;;;;4.45;1.30;;;32.30;34.10;;;;;;4933725;28;20495;-41
2022/08/04 09:58:01;;;;;;;9.82;1.27;;;32.30;34.00;;;;;;4933994;28;20391;-42
2022/08/04 10:00:36;;;;;;;1.75;1.20;;;32.50;32.20;;;;;;4933124;28;20058;-42
2022/08/04 10:03:03;;;;;;;3.28;1.23;;;32.50;32.90;;;;;;4926804;28;20510;-42
2022/08/04 10:05:44;;;;;;;2.67;2.00;;;32.60;33.10;;;;;;4925534;28;22008;-43
2022/08/04 10:08:31;;;;;;;2.25;1.25;;;32.60;32.30;;;;;;4926495;28;20434;-44
2022/08/04 10:11:09;;;;;;;2.90;1.17;;;32.70;32.30;;;;;;4937444;28;20537;-42
2022/08/04 10:13:48;;;;;;;1.25;0.98;;;32.70;31.70;;;;;;4931665;28;20059;-47
2022/08/04 10:16:31;;;;;;;2.50;1.00;;;32.80;32.00;;;;;;4928873;28;20048;-44
2022/08/04 10:19:06;;;;;;;2.03;1.30;;;32.80;31.90;;;;;;4927932;28;22113;-43
2022/08/04 10:21:46;;;;;;;1.40;1.10;;;32.80;31.80;;;;;;4933630;28;20055;-46
2022/08/04 10:24:28;;;;;;;2.53;1.00;;;32.80;31.80;;;;;;4927801;28;20411;-44
2022/08/04 10:27:02;;;;;;;8.38;1.10;;;32.80;32.00;;;;;;4938168;28;20070;-44
2022/08/04 10:29:38;;;;;;;3.20;0.90;;;32.90;32.20;;;;;;4944249;28;20435;-43
2022/08/04 10:32:11;;;;;;;2.50;1.30;;;32.90;32.20;;;;;;4931162;28;20055;-45
2022/08/04 10:34:43;;;;;;;2.75;0.80;;;33.00;31.90;;;;;;4930998;28;20483;-43
2022/08/04 10:37:21;;;;;;;2.22;1.00;;;33.00;31.80;;;;;;4938131;28;20063;-46
2022/08/04 10:42:56;;;;;;;1.20;1.00;;;33.10;31.20;;;;;;4900999;28;20428;-47
2022/08/04 10:45:32;;;;;;;3.42;1.15;;;33.10;31.10;;;;;;4930203;28;20062;-45
2022/08/04 10:48:06;;;;;;;1.70;1.20;;;33.20;31.20;;;;;;4939851;28;20491;-45
2022/08/04 10:50:37;;;;;;;2.40;2.10;;;33.20;31.40;;;;;;4936441;28;20054;-43
2022/08/04 10:53:11;;;;;;;5.93;2.85;;;33.20;31.50;;;;;;4934591;28;20415;-46
2022/08/04 10:55:46;;;;;;;1.70;1.40;;;33.40;30.80;;;;;;4930656;28;20051;-43
2022/08/04 10:58:19;;;;;;;3.22;1.10;;;33.50;30.50;;;;;;4929854;28;20610;-44
2022/08/04 11:00:48;;;;;;;2.42;1.25;;;33.50;30.60;;;;;;4926911;28;20164;-47
2022/08/04 11:03:23;;;;;;;6.88;1.30;;;33.70;30.90;;;;;;4926411;28;20483;-43
2022/08/04 11:05:53;;;;;;;2.97;0.98;;;33.70;30.40;;;;;;4926948;28;20071;-44
2022/08/04 11:08:26;;;;;;;1.05;0.90;;;33.80;29.50;;;;;;4932316;28;20179;-45
2022/08/04 11:11:01;;;;;;;1.27;0.83;;;33.80;30.30;;;;;;4930494;28;20058;-43
2022/08/04 11:13:37;;;;;;;4.18;1.30;;;33.90;29.80;;;;;;4933091;28;20479;-44
2022/08/04 11:16:13;;;;;;;1.92;0.98;;;34.00;29.40;;;;;;4928842;28;20403;-44
2022/08/04 11:18:48;;;;;;;1.48;1.00;;;34.10;29.80;;;;;;4938915;28;20521;-44
2022/08/04 11:21:22;;;;;;;1.00;0.90;;;34.20;29.80;;;;;;4937843;28;20846;-46
2022/08/04 11:24:00;;;;;;;2.17;1.30;;;34.20;30.10;;;;;;4926941;28;20069;-45
2022/08/04 11:26:37;;;;;;;3.42;1.10;;;34.30;30.10;;;;;;4931807;28;20055;-44
2022/08/04 11:29:16;;;;;;;1.25;1.15;;;34.30;30.20;;;;;;4936137;28;20066;-44
2022/08/04 11:31:48;;;;;;;3.72;1.20;;;34.30;30.40;;;;;;4941620;28;20058;-46
2022/08/04 11:34:20;;;;;;;1.98;1.20;;;34.30;29.50;;;;;;4944329;28;20716;-43
2022/08/04 11:36:54;;;;;;;2.45;1.20;;;34.30;29.70;;;;;;4946110;28;20403;-49
2022/08/04 11:39:29;;;;;;;11.07;1.70;;;34.20;29.50;;;;;;4941690;28;20063;-42
2022/08/04 11:42:07;;;;;;;5.32;1.50;;;34.30;29.30;;;;;;4945916;28;20136;-44
2022/08/04 11:44:42;;;;;;;4.88;1.38;;;34.30;29.00;;;;;;4929445;28;20058;-43
2022/08/04 11:47:21;;;;;;;4.53;1.80;;;34.30;28.90;;;;;;4929556;28;20069;-42
2022/08/04 11:49:55;;;;;;;5.32;1.55;;;34.30;29.70;;;;;;4927813;28;20063;-43
2022/08/04 11:52:24;;;;;;;1.80;1.33;;;34.40;29.80;;;;;;4932135;28;20059;-47
2022/08/04 11:54:52;;;;;;;8.23;1.50;;;34.40;29.20;;;;;;4939037;28;20140;-48
2022/08/04 11:57:19;;;;;;;6.80;1.60;;;34.40;28.90;;;;;;4935467;28;20059;-44
2022/08/04 11:59:49;;;;;;;2.78;1.63;;;34.50;28.50;;;;;;4940837;28;20051;-43
2022/08/04 12:02:48;;;;;;;3.25;1.30;;;34.50;29.20;;;;;;4940098;28;20059;-41
2022/08/04 12:05:19;;;;;;;2.67;1.55;;;34.60;28.30;;;;;;4929829;28;20058;-42
2022/08/04 12:07:59;;;;;;;3.28;1.30;;;34.70;28.40;;;;;;4928745;28;20581;-48
2022/08/04 12:10:42;;;;;;;1.83;1.00;;;34.70;26.60;;;;;;4925215;28;20062;-43
2022/08/04 12:13:20;;;;;;;2.08;0.88;;;34.80;26.60;;;;;;4926469;28;20117;-43
2022/08/04 12:16:01;;;;;;;2.38;1.17;;;34.90;26.50;;;;;;4925631;28;20055;-44
2022/08/04 12:18:36;;;;;;;3.83;1.10;;;34.90;26.00;;;;;;4931854;28;20070;-44
2022/08/04 12:21:08;;;;;;;2.08;1.20;;;35.00;26.10;;;;;;4931840;28;20070;-42
2022/08/04 12:23:39;;;;;;;3.88;1.17;;;35.00;26.40;;;;;;4934161;28;20059;-45
2022/08/04 12:26:10;;;;;;;6.43;1.40;;;35.00;26.30;;;;;;4924854;28;20817;-47
2022/08/04 12:28:41;;;;;;;1.77;1.10;;;35.10;26.50;;;;;;4931774;28;20051;-43
2022/08/04 12:31:20;;;;;;;4.30;1.20;;;35.10;26.70;;;;;;4930676;28;20058;-48
2022/08/04 12:33:54;;;;;;;6.38;1.23;;;35.10;26.50;;;;;;4939875;28;20521;-45
2022/08/04 12:36:29;;;;;;;7.85;1.30;;;35.10;26.50;;;;;;4945140;28;20062;-42
2022/08/04 12:39:02;;;;;;;3.15;1.20;;;35.10;26.80;;;;;;4945144;28;20059;-42
2022/08/04 12:41:38;;;;;;;7.40;1.63;;;35.00;26.80;;;;;;4944522;28;20066;-45
2022/08/04 12:44:09;;;;;;;4.00;1.63;;;35.00;27.30;;;;;;4943971;28;20388;-44
2022/08/04 12:46:38;;;;;;;2.88;1.27;;;35.00;26.90;;;;;;4945546;28;20055;-46
2022/08/04 12:49:06;;;;;;;4.18;1.77;;;34.90;26.60;;;;;;4943070;28;20063;-43
2022/08/04 12:51:39;;;;;;;4.35;1.40;;;34.90;26.80;;;;;;4943256;28;20056;-46
2022/08/04 12:54:09;;;;;;;3.50;1.58;;;34.90;26.90;;;;;;4944973;28;20070;-46
2022/08/04 12:56:37;;;;;;;5.72;1.60;;;34.80;26.80;;;;;;4944996;28;20066;-49
2022/08/04 12:59:07;;;;;;;2.38;1.40;;;34.80;27.00;;;;;;4943375;28;20063;-46
2022/08/04 13:01:38;;;;;;;4.55;1.67;;;34.80;27.20;;;;;;4945115;28;20062;-48
2022/08/04 13:04:13;;;;;;;3.70;1.42;;;34.70;27.40;;;;;;4944884;28;20063;-44
2022/08/04 13:06:41;;;;;;;14.93;2.00;;;34.70;27.90;;;;;;4945012;28;20055;-46
2022/08/04 13:09:13;;;;;;;12.32;1.98;;;34.70;28.30;;;;;;4945004;28;20063;-48
2022/08/04 13:11:42;;;;;;;8.02;1.60;;;34.60;28.40;;;;;;4943515;28;20063;-45
2022/08/04 13:14:12;;;;;;;5.15;1.88;;;34.60;28.80;;;;;;4943714;28;20980;-43
2022/08/04 13:16:41;;;;;;;4.88;1.90;;;34.60;29.30;;;;;;4945483;28;20058;-45
2022/08/04 13:19:09;;;;;;;5.60;1.80;;;34.60;29.50;;;;;;4945243;28;20054;-54
2022/08/04 13:21:42;;;;;;;6.65;1.85;;;34.50;29.80;;;;;;4944512;28;20063;-49
2022/08/04 13:24:13;;;;;;;10.53;2.50;;;34.50;30.10;;;;;;4945171;28;20051;-50
2022/08/04 13:26:52;;;;;;;10.38;2.90;;;34.50;30.20;;;;;;4943774;28;20055;-49
2022/08/04 13:29:21;;;;;;;8.43;2.00;;;34.50;30.20;;;;;;4942530;28;20063;-45
2022/08/04 13:31:51;;;;;;;8.05;2.00;;;34.50;30.60;;;;;;4944407;28;20062;-51
2022/08/04 13:34:19;;;;;;;9.65;2.35;;;34.50;30.50;;;;;;4944780;28;20062;-48
2022/08/04 13:36:49;;;;;;;4.15;1.70;;;34.50;30.60;;;;;;4944799;28;20066;-45
2022/08/04 13:39:19;;;;;;;7.53;2.05;;;34.50;30.60;;;;;;4941271;28;20043;-52
2022/08/04 13:41:50;;;;;;;9.77;2.17;;;34.50;30.80;;;;;;4944437;28;20059;-49
2022/08/04 13:44:20;;;;;;;8.02;1.88;;;34.60;30.90;;;;;;4943152;28;20498;-50